Terminal Aerodrome Forecast
Issued by NWS Blacksburg, VA

Home | Current Version | Previous Version | Text Only | Print | Product List | Glossary On
Versions: 1 2 3 4 5 6 7 8 9 10 11 12 13 14 15 16 17 18 19 20 21 22 23 24 25 26
000
FTUS41 KRNK 060528
TAFBLF
TAF
KBLF 060528Z 0606/0706 31008KT P6SM -SHRA OVC003
      TEMPO 0607/0609 4SM -SHRA BR
     FM061000 32008KT 4SM BR OVC004
     FM061500 32009G17KT P6SM SCT004 OVC011
     FM061700 33010G20KT P6SM -SHRA OVC025
     FM062300 30009KT P6SM SCT020 BKN090=

USA.gov is the U.S. government's official web portal to all federal, state and local government web resources and services.